Terminal Aerodrome Forecast
Issued by NWS Duluth, MN

Home | Current Version | Previous Version | Text Only | Print | Product List | Glossary On
Versions: 1 2 3 4 5 6 7 8 9 10 11 12 13 14 15 16 17 18 19 20 21 22 23 24 25
000
FTUS43 KDLH 270255 AAE
TAFDLH
TAF AMD
KDLH 270255Z 2703/2724 30005KT P6SM VCTS SCT050CB BKN120
      TEMPO 2703/2705 23015KT -RA BKN050
     FM271600 09008KT P6SM VCSH OVC050
     FM272000 11008KT P6SM VCSH SCT020 OVC040=

USA.gov is the U.S. government's official web portal to all federal, state and local government web resources and services.